createdAt,value
2023-03-03T00:02:42.752Z,13.50
2023-03-03T00:07:45.575Z,13.38
2023-03-03T00:12:49.647Z,12.43
2023-03-03T00:17:51.824Z,13.87
2023-03-03T00:22:53.400Z,17.05
2023-03-03T00:27:54.732Z,15.50
2023-03-03T00:32:56.218Z,16.33
2023-03-03T00:38:00.454Z,15.65
2023-03-03T00:43:12.205Z,17.50
2023-03-03T00:48:22.771Z,17.77
2023-03-03T00:53:30.014Z,19.90
2023-03-03T00:58:31.541Z,17.27
2023-03-03T01:03:32.980Z,19.17
2023-03-03T01:08:34.374Z,20.45
2023-03-03T01:13:38.183Z,18.98
2023-03-03T01:18:41.722Z,23.58
2023-03-03T01:23:43.625Z,18.15
2023-03-03T01:28:44.961Z,20.70
2023-03-03T01:33:46.641Z,18.27
2023-03-03T01:38:47.978Z,20.23
2023-03-03T01:43:50.421Z,20.65
2023-03-03T01:48:58.316Z,20.10
2023-03-03T01:54:03.293Z,21.73
2023-03-03T02:04:15.223Z,22.13
2023-03-03T02:09:44.267Z,21.80
2023-03-03T02:14:45.968Z,21.60
2023-03-03T02:20:07.780Z,23.67
2023-03-03T02:25:14.970Z,22.85
2023-03-03T02:30:20.057Z,22.17
2023-03-03T02:40:40.923Z,23.27
2023-03-03T02:45:44.299Z,25.45
2023-03-03T02:50:45.692Z,25.13
2023-03-03T02:55:47.230Z,26.48
2023-03-03T03:00:49.077Z,25.75
2023-03-03T03:05:50.730Z,25.40
2023-03-03T03:10:52.274Z,24.55
2023-03-03T03:15:54.183Z,24.83
2023-03-03T03:20:55.544Z,29.08
2023-03-03T03:25:56.861Z,27.95
2023-03-03T03:30:58.572Z,26.83
2023-03-03T03:36:00.128Z,26.70
2023-03-03T03:41:01.686Z,29.27
2023-03-03T03:46:03.374Z,26.75
2023-03-03T03:51:05.141Z,27.55
2023-03-03T03:56:07.325Z,28.45
2023-03-03T04:01:09.106Z,29.90
2023-03-03T04:06:10.507Z,28.23
2023-03-03T04:11:12.033Z,32.25
2023-03-03T04:16:13.521Z,31.73
2023-03-03T04:21:15.764Z,28.45
2023-03-03T04:26:17.228Z,31.92
2023-03-03T04:31:20.429Z,33.67
2023-03-03T04:36:22.171Z,32.58
2023-03-03T04:41:23.603Z,30.77
2023-03-03T04:46:25.324Z,31.08
2023-03-03T04:51:26.842Z,32.83
2023-03-03T04:56:31.384Z,30.35
2023-03-03T05:01:33.033Z,32.05
2023-03-03T05:06:34.657Z,33.42
2023-03-03T05:11:36.395Z,32.65
2023-03-03T05:16:37.914Z,33.90
2023-03-03T05:21:42.755Z,31.50
2023-03-03T05:26:44.550Z,31.42
2023-03-03T05:31:46.050Z,33.88
2023-03-03T05:36:47.852Z,32.35
2023-03-03T05:41:49.275Z,36.08
2023-03-03T05:46:50.659Z,33.30
2023-03-03T05:51:52.187Z,36.42
2023-03-03T05:56:53.657Z,32.53
2023-03-03T06:01:55.071Z,38.15
2023-03-03T06:06:56.491Z,34.03
2023-03-03T06:11:57.975Z,35.88
2023-03-03T06:16:59.438Z,38.78
2023-03-03T06:22:01.056Z,34.75
2023-03-03T06:27:02.539Z,33.85
2023-03-03T06:32:05.197Z,31.90
2023-03-03T06:37:06.956Z,32.47
2023-03-03T06:42:09.482Z,35.45
2023-03-03T06:47:10.973Z,30.70
2023-03-03T06:52:24.401Z,32.05
2023-03-03T06:57:31.953Z,34.47
2023-03-03T07:02:33.448Z,32.55
2023-03-03T07:07:35.224Z,34.33
2023-03-03T07:12:36.642Z,30.58
2023-03-03T07:17:50.924Z,33.10
2023-03-03T07:22:53.577Z,41.53
2023-03-03T07:28:00.770Z,36.55
2023-03-03T07:33:02.210Z,39.92
2023-03-03T07:38:12.184Z,39.95
2023-03-03T07:43:37.241Z,32.50
2023-03-03T07:48:42.008Z,38.70
2023-03-03T07:53:43.604Z,47.45
2023-03-03T07:58:45.083Z,32.92
2023-03-03T08:03:49.454Z,33.15
2023-03-03T08:08:51.490Z,29.80
2023-03-03T08:13:53.494Z,30.33
2023-03-03T08:18:59.093Z,30.05
2023-03-03T08:24:00.927Z,33.17
2023-03-03T08:29:02.571Z,31.27
2023-03-03T08:34:04.480Z,28.70
2023-03-03T08:39:07.119Z,30.20
2023-03-03T08:44:08.510Z,34.33
2023-03-03T08:49:10.185Z,29.52
2023-03-03T08:54:12.216Z,28.00
2023-03-03T08:59:13.726Z,29.48
2023-03-03T09:04:15.382Z,26.92
2023-03-03T09:09:16.970Z,28.52
2023-03-03T09:14:19.243Z,28.65
2023-03-03T09:19:31.079Z,27.20
2023-03-03T09:24:36.207Z,24.02
2023-03-03T09:29:39.461Z,26.73
2023-03-03T09:34:42.639Z,26.40
2023-03-03T09:39:45.962Z,26.23
2023-03-03T09:45:09.176Z,25.98
2023-03-03T09:50:34.777Z,29.17
2023-03-03T09:55:54.867Z,22.75
2023-03-03T10:01:02.998Z,27.60
2023-03-03T10:06:22.564Z,21.60
2023-03-03T10:11:43.082Z,21.40
2023-03-03T10:17:09.637Z,17.50
2023-03-03T10:22:20.465Z,17.60
2023-03-03T10:27:24.979Z,17.25
2023-03-03T10:32:41.956Z,17.73
2023-03-03T10:37:52.284Z,16.63
2023-03-03T10:43:33.535Z,16.05
2023-03-03T10:48:39.666Z,15.88
2023-03-03T10:54:06.712Z,17.35
2023-03-03T10:59:25.276Z,13.15
2023-03-03T11:05:20.799Z,13.68
2023-03-03T11:10:38.023Z,13.82
2023-03-03T11:15:58.521Z,14.73
2023-03-03T11:21:18.949Z,13.30
2023-03-03T11:26:41.462Z,12.35
2023-03-03T11:37:37.174Z,12.63
2023-03-03T11:43:26.445Z,12.02
2023-03-03T11:48:48.761Z,11.45
2023-03-03T11:53:59.077Z,11.75
2023-03-03T11:59:32.811Z,11.45
2023-03-03T12:04:56.175Z,11.63
2023-03-03T12:10:19.748Z,11.63
2023-03-03T12:15:28.981Z,11.23
2023-03-03T12:21:03.691Z,10.75
2023-03-03T12:26:11.107Z,11.23
2023-03-03T12:31:39.014Z,10.15
2023-03-03T12:37:09.319Z,11.50
2023-03-03T12:42:22.011Z,10.20
2023-03-03T12:47:46.126Z,9.85
2023-03-03T12:53:00.358Z,9.73
2023-03-03T12:58:40.721Z,10.98
2023-03-03T13:04:08.481Z,19.75
2023-03-03T13:09:24.338Z,20.02
2023-03-03T13:14:43.237Z,21.52
2023-03-03T13:20:02.626Z,15.63
2023-03-03T13:25:34.404Z,12.57
2023-03-03T13:30:40.417Z,13.23
2023-03-03T13:35:50.020Z,11.65
2023-03-03T13:41:04.336Z,10.53
2023-03-03T13:46:12.710Z,8.68
2023-03-03T13:51:26.574Z,8.93
2023-03-03T13:56:40.019Z,8.13
2023-03-03T14:02:15.972Z,7.25
2023-03-03T14:07:32.911Z,8.05
2023-03-03T14:12:55.480Z,7.57
2023-03-03T14:18:27.566Z,7.80
2023-03-03T14:23:48.359Z,7.78
2023-03-03T14:28:52.401Z,7.35
2023-03-03T14:34:01.258Z,7.60
2023-03-03T14:39:02.734Z,7.95
2023-03-03T14:44:29.180Z,9.23
2023-03-03T14:49:36.775Z,7.78
2023-03-03T14:54:41.392Z,7.18
2023-03-03T15:00:00.988Z,7.03
2023-03-03T15:05:27.827Z,7.78
2023-03-03T15:10:34.068Z,9.77
2023-03-03T15:15:51.524Z,11.00
2023-03-03T15:21:02.317Z,7.50
2023-03-03T15:26:13.471Z,7.28
2023-03-03T15:31:18.098Z,6.75
2023-03-03T15:36:44.948Z,6.57
2023-03-03T15:42:11.740Z,6.68
2023-03-03T15:47:24.517Z,6.35
2023-03-03T15:52:42.112Z,6.95
2023-03-03T15:57:52.705Z,7.75
2023-03-03T16:03:15.306Z,6.32
2023-03-03T16:08:26.003Z,8.43
2023-03-03T16:13:59.684Z,6.15
2023-03-03T16:19:05.910Z,6.78
2023-03-03T16:24:40.408Z,5.75
2023-03-03T16:30:05.290Z,10.90
2023-03-03T16:40:24.904Z,6.65
2023-03-03T16:45:39.213Z,6.90
2023-03-03T16:50:57.057Z,11.55
2023-03-03T16:56:22.177Z,8.20
2023-03-03T17:01:58.961Z,7.35
2023-03-03T17:07:15.367Z,7.65
2023-03-03T17:12:25.889Z,8.85
2023-03-03T17:18:02.702Z,7.15
2023-03-03T17:23:09.983Z,5.78
2023-03-03T17:28:48.389Z,9.10
2023-03-03T17:34:05.491Z,7.82
2023-03-03T17:39:19.158Z,5.65
2023-03-03T17:44:45.350Z,6.10
2023-03-03T17:49:56.269Z,5.97
2023-03-03T17:55:31.560Z,7.60
2023-03-03T18:06:22.594Z,7.45
2023-03-03T18:11:56.993Z,7.40
2023-03-03T18:17:16.982Z,7.55
2023-03-03T18:22:30.838Z,7.82
2023-03-03T18:27:32.220Z,7.45
2023-03-03T18:32:55.613Z,9.05
2023-03-03T18:38:17.267Z,8.90
2023-03-03T18:43:43.796Z,9.20
2023-03-03T18:49:07.492Z,9.75
2023-03-03T18:54:11.982Z,9.02
2023-03-03T18:59:52.736Z,19.50
2023-03-03T19:05:04.642Z,10.02
2023-03-03T19:10:45.075Z,8.50
2023-03-03T19:15:52.461Z,8.57
2023-03-03T19:21:01.923Z,11.48
2023-03-03T19:26:25.410Z,8.68
2023-03-03T19:31:34.325Z,11.55
2023-03-03T19:36:54.591Z,9.23
2023-03-03T19:42:12.043Z,8.27
2023-03-03T19:47:13.337Z,8.43
2023-03-03T19:52:26.375Z,7.93
2023-03-03T19:57:54.039Z,7.93
2023-03-03T20:03:39.816Z,7.68
2023-03-03T20:13:56.711Z,8.27
2023-03-03T20:19:07.228Z,9.95
2023-03-03T20:24:41.784Z,9.63
2023-03-03T20:30:46.914Z,8.43
2023-03-03T20:36:04.077Z,11.27
2023-03-03T20:41:25.709Z,9.30
2023-03-03T20:46:34.103Z,9.13
2023-03-03T20:51:44.956Z,10.57
2023-03-03T20:57:28.878Z,11.23
2023-03-03T21:02:47.311Z,9.98
2023-03-03T21:07:58.434Z,10.27
2023-03-03T21:13:26.165Z,8.77
2023-03-03T21:18:27.973Z,10.95
2023-03-03T21:23:29.392Z,12.85
2023-03-03T21:28:33.526Z,11.23
2023-03-03T21:33:55.400Z,10.23
2023-03-03T21:38:58.286Z,12.20
2023-03-03T21:43:59.771Z,10.48
2023-03-03T21:49:01.173Z,12.63
2023-03-03T21:54:02.602Z,9.73
2023-03-03T21:59:04.300Z,11.30
2023-03-03T22:04:05.868Z,10.35
2023-03-03T22:09:08.149Z,10.25
2023-03-03T22:14:09.722Z,11.25
2023-03-03T22:19:11.181Z,13.65
2023-03-03T22:24:13.047Z,13.27
2023-03-03T22:29:16.726Z,13.50
2023-03-03T22:34:18.436Z,13.13
2023-03-03T22:39:19.873Z,12.30
2023-03-03T22:44:21.333Z,12.75
2023-03-03T22:49:22.687Z,12.48
2023-03-03T22:54:24.903Z,11.93
2023-03-03T22:59:26.308Z,12.82
2023-03-03T23:04:27.853Z,12.35
2023-03-03T23:09:29.220Z,12.85
2023-03-03T23:14:30.704Z,13.45
2023-03-03T23:19:32.069Z,13.38
2023-03-03T23:24:33.589Z,14.52
2023-03-03T23:29:35.610Z,13.88
2023-03-03T23:34:37.021Z,14.10
2023-03-03T23:39:40.498Z,13.18
2023-03-03T23:44:41.933Z,14.90
2023-03-03T23:49:43.322Z,15.02
2023-03-03T23:54:45.296Z,12.73
2023-03-03T23:59:46.801Z,12.95
